Jackson Hole Airport
KJAC : now visible

Airfield :











YOU CAN JOIN US ON...

 
LOGIN :

Register | Disclaimer

   EN    FR    IT 

 









Legend :    VFR   Marginal VFR   IFR   Intensive IFR   Very Intensive IFR
Visi :
Ceiling :
>= 8 km
>= 3000ft
5 to 8 km
1000 to 3000 ft
1500m to 5 km
500 to 1000 ft
800 to 1500m
200 to 500 ft
< 800m
< 200 ft
Symbols :   Thunderstorms  Fog  Heavy snow  Heavy precipitations  Wind > 20 kt






- Airport Elevation : 6451 ft
- IATA code : JAC


KJAC - Jackson Hole

CURRENT METAR :
  • 240811Z AUTO 19014G19KT 1 3/4SM -SN BR BKN012 OVC021 M02/M03 A2993 RMK AO2 P0001 FZRANO

EXPIRED METARs :
  • 240756Z AUTO 19017G23KT 2 1/2SM -SN BR OVC012 M01/M03 A2993 RMK AO2 PK WND 22027/0701 WSHFT 0651 VIS 1 3/4V3 RAB03E11 SLP155 P0000 T10111028 FZRANO
  • 240738Z AUTO 19014G21KT 3SM -SN SCT009 OVC014 M01/M04 A2994 RMK AO2 PK WND 22027/0701 WSHFT 0651 RAB03E11 P0000 FZRANO
  • 240733Z AUTO 20015G24KT 1 1/2SM -SN BKN009 BKN013 OVC021 M01/M03 A2994 RMK AO2 PK WND 22027/0701 WSHFT 0651 RAB03E11 P0000 FZRANO
  • 240721Z AUTO 20016G23KT 1 3/4SM -SN SCT011 BKN018 OVC040 M01/M03 A2993 RMK AO2 PK WND 22027/0701 WSHFT 0651 VIS 1 1/4V4 RAB03E11 P0000 FZRANO
  • 240708Z AUTO 21015G27KT 4SM -RA SCT013 BKN020 OVC040 01/M05 A2993 RMK AO2 PK WND 22027/0701 WSHFT 0651 RAB03SNE03 P0000 FZRANO
  • 240656Z AUTO 21011G16KT 10SM -SN FEW013 BKN041 OVC048 02/M06 A2993 RMK AO2 RAB36E53SNB53 SLP152 P0000 T00171061 400561122 FZRANO
  • 240556Z AUTO VRB06KT 10SM FEW049 OVC060 03/M13 A2992 RMK AO2 SLP155 T00281133 10039 20011 56006

TAF KJAC
Valid from the 24 at 06:00 until the 25 at 06:00 UTC


240520Z 2406/2506 21012G20KT P6SM VCSH OVC060
FM240900 20014G22KT 4SM -SN OVC025
FM241300 21012KT 2SM -SN BR SCT010 OVC015
FM242200 30008KT 4SM -SN SCT015 OVC025
FM250200 35011KT P6SM VCSH SCT010 OVC020
KZLC FIR / North America



MET'MAP, your aeronautical weather chart ! - Copyright ORBIFLY December 2007 - Disclaimer

ORBIFLY MET'MAP TEAM :

Programming & Development : Alexandra Zaïnal
Concept & original design : Baudouin d'Aumeries
Assistance for programming : Marc-Olivier Méhu
Technical & hardware support : Manuel Goepfert

Contact : metmap@orbifly.com




SOURCES & CREDITS :

   NOAA       Earth
Advisory